Terminal Aerodrome Forecast
Issued by NWS

Home | Current Version | Previous Version | Text Only | Print | Product List | Glossary On
Versions: 1 2 3 4 5 6 7 8 9 10 11 12 13 14 15 16 17 18 19 20 21 22 23
000
FTPA31 PHFO 152300
TAFJHM
TAF
PHJH 152322Z 1600/1624 02012G18KT P6SM FEW035 SCT060
     FM160500 04006KT P6SM FEW030 SCT060
     FM162000 04012G18KT P6SM FEW035 SCT060
      AMD NOT SKED AFT 160400=

USA.gov is the U.S. government's official web portal to all federal, state and local government web resources and services.